Vilanova I La Geltru, Spain
Current Conditions -  °F | °C
As of 12:00 PM on Tuesday 21 Oct 2014 (Local Time) from LEBL Reporting Station
Clear Clear  
Wind Chill: 77°   Ceiling: Unl
Heat Index: 79°   Visibility: 6mi
Dew Point: 55°   Wind: 10mph
Humidity: 47%   Direction: 330°NNW
Pressure: 30.09"   Gusts: NA
Location:  41.22°N, 1.73°E
Report Text: LEBL 211000Z 33009KT 300V360 CAVOK 25/13 Q1019 NOSIG
Loading
Personal Weather Stations






























Interactive Weather Map
Tropical Storm Tracking
New forecast layout! Learn more

10-Day Weather Forecast

Advertisements
Track Severe Weather on mobile